Time;durP1;ratioP1;P1;durP2;ratioP2;P2;SDS_P1;SDS_P2;PMS_P1;PMS_P2;Temp;Humidity;BMP_temperature;BMP_pressure;BME280_temperature;BME280_humidity;BME280_pressure;Samples;Min_cycle;Max_cycle;Signal;HPM_P1;HPM_P2
2021/07/06 00:01:36;;;;;;;9.52;6.15;;;;;;;21.42;83.75;98811.22;3479918;28;20140;-43
2021/07/06 00:03:18;;;;;;;6.85;5.63;;;;;;;21.41;83.74;98809.50;3482438;28;20044;-43
2021/07/06 00:04:59;;;;;;;6.68;5.50;;;;;;;21.40;83.27;98816.56;3481892;28;20107;-43
2021/07/06 00:06:41;;;;;;;6.75;5.07;;;;;;;21.38;83.50;98814.91;3479816;28;20049;-43
2021/07/06 00:08:22;;;;;;;5.93;5.18;;;;;;;21.37;83.72;98818.50;3484057;28;20499;-43
2021/07/06 00:10:05;;;;;;;7.40;5.05;;;;;;;21.35;83.62;98823.81;3477827;28;20445;-43
2021/07/06 00:11:46;;;;;;;7.63;5.45;;;;;;;21.35;83.53;98826.47;3470620;28;20426;-43
2021/07/06 00:13:28;;;;;;;6.20;5.47;;;;;;;21.36;83.43;98829.94;3472788;28;20069;-43
2021/07/06 00:15:11;;;;;;;7.07;5.70;;;;;;;21.35;83.57;98830.91;3472001;28;20057;-43
2021/07/06 00:16:53;;;;;;;;;;;;;;;21.33;83.45;98825.69;3484627;28;20059;-43
2021/07/06 00:18:35;;;;;;;7.13;5.25;;;;;;;21.32;83.42;98826.59;3481040;28;20383;-43
2021/07/06 00:20:17;;;;;;;7.38;5.60;;;;;;;21.33;83.43;98830.97;3470414;28;20127;-43
2021/07/06 00:21:58;;;;;;;8.05;5.70;;;;;;;21.34;84.29;98837.09;3476405;28;20488;-44
2021/07/06 00:23:40;;;;;;;8.95;5.50;;;;;;;21.32;83.63;98838.94;3484000;28;20609;-43
2021/07/06 00:25:22;;;;;;;7.05;5.50;;;;;;;21.30;83.51;98833.72;3473070;28;20093;-43
2021/07/06 00:27:04;;;;;;;6.68;5.43;;;;;;;21.29;83.24;98839.91;3471908;28;20399;-43
2021/07/06 00:28:45;;;;;;;7.38;5.40;;;;;;;21.27;84.22;98832.06;3471240;28;20514;-43
2021/07/06 00:30:27;;;;;;;6.80;5.47;;;;;;;21.26;83.71;98837.44;3473014;28;20083;-43
2021/07/06 00:32:09;;;;;;;6.97;5.65;;;;;;;21.24;83.83;98841.88;3484235;28;20076;-43
2021/07/06 00:33:52;;;;;;;7.65;5.85;;;;;;;21.24;83.91;98840.13;3477159;28;20045;-43
2021/07/06 00:35:33;;;;;;;6.93;5.22;;;;;;;21.24;83.66;98849.81;3470118;28;20081;-43
2021/07/06 00:37:14;;;;;;;7.82;5.65;;;;;;;21.22;83.81;98846.38;3472786;28;20081;-43
2021/07/06 00:38:56;;;;;;;9.85;5.70;;;;;;;21.21;83.87;98847.31;3472117;28;20132;-43
2021/07/06 00:40:38;;;;;;;7.43;6.15;;;;;;;21.19;84.04;98850.03;3483633;28;20077;-42
2021/07/06 00:42:19;;;;;;;8.18;5.57;;;;;;;21.17;84.02;98843.06;3479454;28;20103;-43
2021/07/06 00:44:01;;;;;;;6.18;5.55;;;;;;;21.17;84.05;98858.91;3483979;28;20143;-43
2021/07/06 00:45:42;;;;;;;11.65;6.43;;;;;;;21.13;84.31;98850.28;3478117;28;20052;-43
2021/07/06 00:47:32;;;;;;;9.68;5.45;;;;;;;21.11;84.03;98854.75;3483786;28;20143;-43
2021/07/06 00:49:14;;;;;;;8.23;5.75;;;;;;;21.10;84.39;98858.34;3479726;28;20497;-43
2021/07/06 00:50:56;;;;;;;9.23;5.50;;;;;;;21.07;84.46;98853.19;3481089;28;20085;-43
2021/07/06 00:52:38;;;;;;;7.80;5.85;;;;;;;21.06;85.18;98852.31;3469646;28;20486;-43
2021/07/06 00:54:19;;;;;;;6.10;5.43;;;;;;;21.05;84.45;98853.25;3479239;28;20521;-43
2021/07/06 00:56:00;;;;;;;7.90;6.20;;;;;;;21.04;84.80;98859.41;3470001;28;20057;-43
2021/07/06 00:57:43;;;;;;;7.50;5.53;;;;;;;21.04;84.61;98862.06;3471463;28;20380;-43
2021/07/06 00:59:25;;;;;;;;;;;;;;;21.04;84.50;98861.22;3471308;28;20061;-42
2021/07/06 01:01:06;;;;;;;14.23;5.70;;;;;;;21.01;84.87;98861.34;3479886;28;19964;-43
2021/07/06 01:02:50;;;;;;;7.55;6.20;;;;;;;20.98;84.57;98859.69;3480769;28;20136;-42
2021/07/06 01:04:31;;;;;;;10.02;6.28;;;;;;;20.96;84.72;98858.91;3482893;28;20080;-43
2021/07/06 01:06:13;;;;;;;10.07;6.20;;;;;;;20.95;84.69;98869.53;3478933;28;20156;-43
2021/07/06 01:07:54;;;;;;;9.50;6.32;;;;;;;20.93;84.91;98863.47;3470059;28;20082;-43
2021/07/06 01:09:35;;;;;;;10.05;5.88;;;;;;;20.91;84.82;98860.88;3475662;28;20083;-43
2021/07/06 01:11:17;;;;;;;8.38;6.18;;;;;;;20.90;85.03;98861.78;3483244;28;20056;-43
2021/07/06 01:12:59;;;;;;;11.13;6.22;;;;;;;20.89;85.17;98857.44;3472398;28;20486;-43
2021/07/06 01:14:40;;;;;;;7.75;5.97;;;;;;;20.89;85.04;98860.09;3471419;28;20049;-43
2021/07/06 01:16:22;;;;;;;7.95;5.80;;;;;;;20.88;84.98;98856.56;3469584;28;20093;-42
2021/07/06 01:18:06;;;;;;;9.18;5.50;;;;;;;20.88;85.04;98856.56;3473653;28;20048;-43
2021/07/06 01:19:48;;;;;;;11.18;5.53;;;;;;;20.88;84.97;98861.00;3469861;28;20077;-43
2021/07/06 01:21:30;;;;;;;7.78;5.45;;;;;;;20.87;85.02;98861.91;3472173;28;20088;-43
2021/07/06 01:23:12;;;;;;;13.80;6.22;;;;;;;20.87;84.97;98864.53;3470784;28;20080;-43
2021/07/06 01:24:53;;;;;;;8.98;6.03;;;;;;;20.86;84.84;98871.59;3479827;28;20106;-43
2021/07/06 01:26:34;;;;;;;10.48;6.25;;;;;;;20.85;85.22;98867.28;3479972;28;20506;-43
2021/07/06 01:28:16;;;;;;;7.90;5.90;;;;;;;20.86;85.63;98871.59;3482455;28;20080;-43
2021/07/06 01:29:57;;;;;;;9.02;6.20;;;;;;;20.85;85.64;98875.19;3479081;28;20077;-43
2021/07/06 01:31:39;;;;;;;6.70;5.90;;;;;;;20.84;85.71;98875.25;3483432;28;20583;-43
2021/07/06 01:33:23;;;;;;;8.23;5.88;;;;;;;20.82;85.46;98877.94;3475045;28;20045;-43
2021/07/06 01:35:05;;;;;;;9.45;6.60;;;;;;;20.79;85.72;98888.59;3470605;28;20053;-43
2021/07/06 01:36:47;;;;;;;6.85;6.15;;;;;;;20.78;85.88;98888.66;3479976;28;20139;-43
2021/07/06 01:38:30;;;;;;;12.30;6.40;;;;;;;20.76;86.00;98877.31;3481244;28;20726;-44
2021/07/06 01:40:12;;;;;;;11.18;6.07;;;;;;;20.76;85.64;98887.88;3469779;28;20073;-42
2021/07/06 01:41:54;;;;;;;9.68;5.97;;;;;;;20.74;85.66;98885.28;3474294;28;20053;-43
2021/07/06 01:43:35;;;;;;;9.38;6.32;;;;;;;20.74;85.74;98889.72;3483170;28;20567;-43
2021/07/06 01:45:19;;;;;;;7.05;5.93;;;;;;;20.74;85.74;98887.06;3478712;28;20150;-43
2021/07/06 01:47:00;;;;;;;9.18;6.38;;;;;;;20.75;85.67;98888.78;3482224;28;20072;-43
2021/07/06 01:48:42;;;;;;;8.57;6.50;;;;;;;20.76;84.88;98893.13;3471918;28;20531;-43
2021/07/06 01:50:26;;;;;;;7.82;6.00;;;;;;;20.78;84.99;98891.28;3479162;28;20076;-42
2021/07/06 01:52:07;;;;;;;6.97;5.72;;;;;;;20.80;85.23;98892.06;3482451;28;20107;-43
2021/07/06 01:53:49;;;;;;;9.82;6.68;;;;;;;20.82;85.27;98887.63;3474517;28;20061;-43
2021/07/06 01:55:34;;;;;;;8.45;6.50;;;;;;;20.84;84.91;98893.69;3483260;28;20088;-43
2021/07/06 01:57:15;;;;;;;10.15;6.88;;;;;;;20.85;84.88;98893.63;3473428;28;20088;-43
2021/07/06 01:58:56;;;;;;;7.82;6.20;;;;;;;20.86;84.95;98897.97;3470388;28;20053;-43
2021/07/06 02:00:40;;;;;;;7.90;5.97;;;;;;;20.89;84.77;98897.00;3480636;28;20136;-43
2021/07/06 02:02:21;;;;;;;10.25;6.20;;;;;;;20.90;84.97;98896.06;3479211;28;20540;-43
2021/07/06 02:04:04;;;;;;;6.70;6.05;;;;;;;20.91;85.33;98899.53;3469220;28;20140;-43
2021/07/06 02:05:48;;;;;;;9.43;7.07;;;;;;;20.89;84.69;98899.63;3474844;28;20112;-43
2021/07/06 02:07:29;;;;;;;10.23;6.82;;;;;;;20.90;84.68;98896.06;3483054;28;20048;-43
2021/07/06 02:09:11;;;;;;;8.70;6.35;;;;;;;20.91;84.69;98899.53;3478281;28;20134;-43
2021/07/06 02:10:55;;;;;;;8.88;6.95;;;;;;;20.92;84.47;98901.28;3481201;28;20084;-43
2021/07/06 02:12:38;;;;;;;8.68;6.82;;;;;;;20.92;84.74;98909.19;3482602;28;20053;-43
2021/07/06 02:14:19;;;;;;;8.65;7.20;;;;;;;20.94;84.76;98904.69;3478568;28;20055;-43
2021/07/06 02:16:04;;;;;;;10.43;7.22;;;;;;;20.95;84.60;98906.44;3482934;28;20078;-43
2021/07/06 02:17:46;;;;;;;9.85;7.00;;;;;;;20.94;84.99;98908.22;3475333;28;20053;-43
2021/07/06 02:19:28;;;;;;;7.13;5.78;;;;;;;20.93;84.83;98914.41;3469446;28;20106;-43
2021/07/06 02:21:10;;;;;;;13.80;6.70;;;;;;;20.93;84.94;98911.75;3472135;28;20506;-43
2021/07/06 02:22:52;;;;;;;13.38;6.50;;;;;;;20.94;84.89;98917.88;3471378;28;20507;-43
2021/07/06 02:24:34;;;;;;;8.45;6.03;;;;;;;20.97;85.65;98918.63;3470468;28;20140;-43
2021/07/06 02:26:15;;;;;;;9.80;6.38;;;;;;;20.96;85.11;98911.66;3472444;28;20049;-43
2021/07/06 02:27:57;;;;;;;11.48;6.82;;;;;;;20.96;85.17;98919.56;3483020;28;20144;-43
2021/07/06 02:29:39;;;;;;;8.65;6.20;;;;;;;20.99;85.17;98916.78;3474109;28;20160;-43
2021/07/06 02:31:20;;;;;;;8.70;5.93;;;;;;;20.99;85.73;98914.13;3469391;28;20095;-42
2021/07/06 02:33:01;;;;;;;10.05;5.93;;;;;;;21.00;85.25;98920.28;3478656;28;20496;-43
2021/07/06 02:34:43;;;;;;;10.02;5.93;;;;;;;21.02;85.11;98926.34;3479531;28;20087;-43
2021/07/06 02:36:24;;;;;;;10.05;6.40;;;;;;;21.04;85.23;98920.06;3481863;28;20122;-43
2021/07/06 02:38:05;;;;;;;8.48;6.32;;;;;;;21.07;85.07;98925.22;3477366;28;20415;-43
2021/07/06 02:39:48;;;;;;;9.65;6.30;;;;;;;21.11;84.91;98925.13;3468991;28;20422;-43
2021/07/06 02:41:29;;;;;;;8.77;6.43;;;;;;;21.13;84.43;98924.13;3471380;28;20152;-42
2021/07/06 02:43:11;;;;;;;11.82;6.47;;;;;;;21.17;84.23;98925.72;3473092;28;20965;-43
2021/07/06 02:44:52;;;;;;;7.40;6.03;;;;;;;21.21;84.32;98926.47;3478225;28;20517;-43
2021/07/06 02:46:33;;;;;;;8.02;5.90;;;;;;;21.25;83.79;98923.59;3480432;28;20049;-43
2021/07/06 02:48:15;;;;;;;9.10;6.82;;;;;;;21.29;83.39;98926.97;3470190;28;20053;-43
2021/07/06 02:49:56;;;;;;;7.30;6.40;;;;;;;21.33;83.76;98925.94;3472559;28;20242;-43
2021/07/06 02:51:37;;;;;;;6.70;5.57;;;;;;;21.38;82.88;98923.97;3469008;28;20053;-43
2021/07/06 02:53:19;;;;;;;9.52;6.43;;;;;;;21.43;82.30;98927.25;3473023;28;20502;-43
2021/07/06 02:55:01;;;;;;;15.35;6.30;;;;;;;21.48;82.20;98926.22;3482204;28;20083;-42
2021/07/06 02:56:42;;;;;;;10.57;6.20;;;;;;;21.54;82.24;98923.28;3480393;28;20053;-43
2021/07/06 02:58:23;;;;;;;9.77;6.47;;;;;;;21.60;81.81;98928.31;3480637;28;20076;-43
2021/07/06 03:00:12;;;;;;;7.85;6.28;;;;;;;21.64;81.47;98922.84;3480185;28;20479;-45
2021/07/06 03:01:54;;;;;;;10.38;7.13;;;;;;;21.71;81.65;98931.38;3478029;28;20558;-43
2021/07/06 03:03:35;;;;;;;8.10;6.05;;;;;;;21.75;81.28;98927.66;3482264;28;20049;-42
2021/07/06 03:05:18;;;;;;;7.55;6.53;;;;;;;21.80;80.79;98930.09;3478148;28;20118;-42
2021/07/06 03:06:59;;;;;;;7.68;6.18;;;;;;;21.83;80.61;98929.97;3482081;28;20049;-43
2021/07/06 03:08:40;;;;;;;8.82;5.75;;;;;;;21.89;80.44;98928.84;3471162;28;20138;-43
2021/07/06 03:10:24;;;;;;;9.57;5.82;;;;;;;21.95;80.93;98925.94;3469701;28;20506;-43
2021/07/06 03:12:06;;;;;;;9.40;5.95;;;;;;;22.00;80.45;98930.09;3469331;28;20093;-43
2021/07/06 03:13:48;;;;;;;10.70;6.45;;;;;;;22.06;80.62;98936.88;3472594;28;20080;-43
2021/07/06 03:15:31;;;;;;;11.45;6.25;;;;;;;22.12;80.01;98933.09;3482301;28;20056;-43
2021/07/06 03:17:12;;;;;;;9.43;7.03;;;;;;;22.15;80.07;98936.44;3477956;28;20072;-43
2021/07/06 03:18:54;;;;;;;7.43;6.32;;;;;;;22.19;80.09;98938.03;3481709;28;20610;-43
2021/07/06 03:20:35;;;;;;;10.70;6.78;;;;;;;22.20;79.45;98939.72;3477929;28;20049;-43
2021/07/06 03:22:16;;;;;;;10.32;6.38;;;;;;;22.23;79.70;98940.50;3479863;28;20077;-42
2021/07/06 03:23:58;;;;;;;8.55;6.55;;;;;;;22.24;79.44;98944.88;3469243;28;20138;-43
2021/07/06 03:25:41;;;;;;;12.50;5.97;;;;;;;22.26;79.43;98949.16;3474583;28;20175;-43
2021/07/06 03:27:23;;;;;;;7.65;6.07;;;;;;;22.29;79.34;98951.66;3482178;28;20096;-42
2021/07/06 03:29:04;;;;;;;9.23;6.38;;;;;;;22.34;79.29;98957.59;3477623;28;20084;-43
2021/07/06 03:30:45;;;;;;;9.20;5.75;;;;;;;22.36;78.82;98953.09;3481593;28;20130;-43
2021/07/06 03:32:27;;;;;;;6.95;6.00;;;;;;;22.38;78.51;98953.88;3471268;28;20077;-43
2021/07/06 03:34:08;;;;;;;12.45;6.68;;;;;;;22.39;78.42;98947.69;3470113;28;20046;-43
2021/07/06 03:35:50;;;;;;;6.57;5.93;;;;;;;22.42;78.44;98959.88;3481121;28;20148;-43
2021/07/06 03:37:31;;;;;;;8.82;6.35;;;;;;;22.43;78.09;98952.84;3477443;28;20072;-43
2021/07/06 03:39:12;;;;;;;8.63;7.55;;;;;;;22.45;78.45;98954.47;3468624;28;20081;-42
2021/07/06 03:40:54;;;;;;;8.20;7.40;;;;;;;22.49;79.21;98957.84;3472032;28;20073;-43
2021/07/06 03:42:36;;;;;;;11.45;6.90;;;;;;;22.50;78.43;98952.50;3479348;28;20077;-43
2021/07/06 03:44:17;;;;;;;15.13;6.60;;;;;;;22.50;78.08;98960.41;3469945;28;20049;-43
2021/07/06 03:45:59;;;;;;;9.73;6.07;;;;;;;22.52;78.33;98955.91;3470265;28;20077;-42
2021/07/06 03:47:40;;;;;;;8.80;6.40;;;;;;;22.53;78.63;98959.41;3468089;28;20434;-42
2021/07/06 03:49:22;;;;;;;11.82;6.43;;;;;;;22.54;78.60;98954.06;3471900;28;20057;-43
2021/07/06 03:51:03;;;;;;;8.82;6.30;;;;;;;22.57;78.43;98961.00;3468444;28;20100;-43
2021/07/06 03:52:45;;;;;;;7.38;5.95;;;;;;;22.59;79.17;98957.34;3469253;28;20502;-43
2021/07/06 03:54:26;;;;;;;8.05;6.30;;;;;;;22.63;79.16;98951.91;3468748;28;20479;-43
2021/07/06 03:56:08;;;;;;;10.63;6.15;;;;;;;22.65;78.66;98957.97;3470886;28;20085;-43
2021/07/06 03:57:50;;;;;;;6.80;6.10;;;;;;;22.68;78.77;98963.97;3469745;28;20641;-43
2021/07/06 03:59:32;;;;;;;7.22;5.38;;;;;;;22.71;78.61;98960.34;3479772;28;20049;-42
2021/07/06 04:01:13;;;;;;;10.77;6.28;;;;;;;22.74;78.09;98966.34;3476112;28;20556;-42
2021/07/06 04:02:55;;;;;;;9.55;6.47;;;;;;;22.77;78.03;98971.47;3481883;28;20049;-43
2021/07/06 04:04:36;;;;;;;7.63;6.32;;;;;;;22.82;78.23;98970.41;3473050;28;20083;-43
2021/07/06 04:06:18;;;;;;;11.77;6.30;;;;;;;22.86;77.43;98969.31;3468836;28;20077;-43
2021/07/06 04:07:59;;;;;;;11.10;6.65;;;;;;;22.90;77.47;98973.53;3470996;28;20483;-43
2021/07/06 04:09:40;;;;;;;13.10;6.38;;;;;;;22.95;77.26;98979.47;3470449;28;20560;-42
2021/07/06 04:11:22;;;;;;;9.20;6.22;;;;;;;23.02;76.09;98975.59;3469441;28;20091;-43
2021/07/06 04:13:04;;;;;;;7.50;6.30;;;;;;;23.08;76.47;98977.94;3471659;28;20042;-43
2021/07/06 04:14:45;;;;;;;7.28;6.00;;;;;;;23.12;76.34;98970.72;3481894;28;20075;-42
2021/07/06 04:16:26;;;;;;;6.93;6.18;;;;;;;23.18;76.25;98965.09;3477196;28;20081;-42
2021/07/06 04:18:08;;;;;;;10.13;6.30;;;;;;;23.25;76.04;98970.97;3481401;28;20421;-42
2021/07/06 04:19:49;;;;;;;8.18;5.40;;;;;;;23.35;75.90;98972.25;3478084;28;20095;-43
2021/07/06 04:21:31;;;;;;;8.90;6.00;;;;;;;23.40;75.49;98972.88;3479320;28;20072;-42
2021/07/06 04:23:13;;;;;;;10.70;6.10;;;;;;;23.46;75.11;98969.06;3479786;28;20107;-43
2021/07/06 04:24:54;;;;;;;9.55;6.32;;;;;;;23.52;75.51;98972.25;3477728;28;20551;-43
2021/07/06 04:26:36;;;;;;;12.25;6.57;;;;;;;23.57;75.07;98979.97;3467929;28;20540;-43
2021/07/06 04:28:18;;;;;;;8.27;6.18;;;;;;;23.60;74.07;98974.50;3474377;28;20084;-42
2021/07/06 04:29:59;;;;;;;9.50;6.30;;;;;;;23.63;74.58;98977.00;3481446;28;20130;-43
2021/07/06 04:31:40;;;;;;;12.00;6.72;;;;;;;23.64;73.88;98975.22;3470303;28;20081;-43
2021/07/06 04:33:22;;;;;;;9.63;6.30;;;;;;;23.69;74.42;98976.69;3471819;28;20045;-42
2021/07/06 04:35:05;;;;;;;9.70;6.45;;;;;;;23.75;74.06;98972.00;3471135;28;20093;-43
2021/07/06 04:36:46;;;;;;;8.75;6.45;;;;;;;23.81;74.21;98982.28;3473122;28;20147;-43
2021/07/06 04:38:28;;;;;;;13.40;6.53;;;;;;;23.86;73.73;98986.41;3483631;28;20577;-42
2021/07/06 04:40:10;;;;;;;7.63;6.47;;;;;;;23.90;74.28;98980.00;3475723;28;20080;-43
2021/07/06 04:41:52;;;;;;;8.20;5.93;;;;;;;23.95;74.11;98979.78;3470507;28;20049;-43
2021/07/06 04:43:33;;;;;;;8.82;6.00;;;;;;;24.00;74.07;98991.00;3472178;28;20494;-43
2021/07/06 04:45:14;;;;;;;6.80;5.95;;;;;;;24.00;72.85;98983.03;3470550;28;20077;-42
2021/07/06 04:46:56;;;;;;;8.80;6.30;;;;;;;24.00;73.03;98985.69;3481952;28;20061;-42
2021/07/06 04:48:37;;;;;;;7.47;6.00;;;;;;;23.99;73.07;98985.78;3480159;28;20080;-42
2021/07/06 04:50:19;;;;;;;7.50;6.22;;;;;;;23.93;72.41;98986.97;3470197;28;20080;-43
2021/07/06 04:52:00;;;;;;;9.35;5.90;;;;;;;23.87;73.08;98984.63;3472523;28;20622;-43
2021/07/06 04:53:42;;;;;;;8.57;5.93;;;;;;;23.85;73.87;98983.84;3468528;28;20073;-43
2021/07/06 04:55:23;;;;;;;9.75;6.70;;;;;;;23.81;74.17;98988.44;3479515;28;20084;-43
2021/07/06 04:57:06;;;;;;;10.20;6.28;;;;;;;23.80;74.07;98991.16;3481757;28;20076;-43
2021/07/06 04:58:47;;;;;;;10.43;6.47;;;;;;;23.76;73.95;98990.47;3481744;28;20059;-43
2021/07/06 05:00:28;;;;;;;11.85;6.25;;;;;;;23.73;74.70;98980.06;3479042;28;20155;-43
2021/07/06 05:02:10;;;;;;;8.90;6.63;;;;;;;23.70;73.98;98983.69;3483898;28;20077;-43
2021/07/06 05:03:52;;;;;;;9.85;6.38;;;;;;;23.67;74.41;98989.16;3479314;28;20096;-43
2021/07/06 05:05:38;;;;;;;7.85;6.55;;;;;;;23.66;74.21;98987.44;3483033;28;20111;-43
2021/07/06 05:07:19;;;;;;;8.85;6.65;;;;;;;23.63;74.48;98992.06;3471262;28;20446;-43
2021/07/06 05:09:01;;;;;;;12.38;6.93;;;;;;;23.64;75.37;98991.09;3471758;28;20080;-43
2021/07/06 05:10:42;;;;;;;12.48;6.35;;;;;;;23.63;74.81;98992.06;3482113;28;20052;-43
2021/07/06 05:12:27;;;;;;;12.32;6.70;;;;;;;23.62;74.69;98987.69;3479470;28;20107;-43
2021/07/06 05:14:08;;;;;;;9.35;6.80;;;;;;;23.59;74.08;98983.41;3483674;28;20087;-43
2021/07/06 05:15:50;;;;;;;7.78;6.20;;;;;;;23.64;75.17;98986.69;3479440;28;20049;-43
2021/07/06 05:17:31;;;;;;;10.27;6.88;;;;;;;23.67;74.91;98986.50;3482157;28;20087;-43
2021/07/06 05:19:13;;;;;;;8.60;6.75;;;;;;;23.70;75.14;98990.81;3472291;28;20053;-43
2021/07/06 05:20:54;;;;;;;8.82;6.90;;;;;;;23.72;74.62;98983.63;3472359;28;20179;-43
2021/07/06 05:22:35;;;;;;;10.32;7.03;;;;;;;23.74;74.84;98981.75;3470841;28;20092;-44
2021/07/06 05:24:17;;;;;;;10.43;7.18;;;;;;;23.74;74.41;98979.09;3473125;28;20170;-43
2021/07/06 05:25:58;;;;;;;8.38;6.68;;;;;;;23.78;74.64;98987.75;3483566;28;20508;-43
2021/07/06 05:27:40;;;;;;;11.10;6.95;;;;;;;23.80;74.20;98983.22;3474736;28;20139;-43
2021/07/06 05:29:21;;;;;;;8.27;6.88;;;;;;;23.81;74.19;98988.44;3470387;28;20049;-43
2021/07/06 05:31:04;;;;;;;9.07;6.80;;;;;;;23.85;74.56;98986.50;3470726;28;20065;-43
2021/07/06 05:32:46;;;;;;;11.75;7.45;;;;;;;23.85;74.27;98990.03;3472000;28;20099;-43
2021/07/06 05:34:27;;;;;;;20.52;7.32;;;;;;;23.85;73.98;98989.13;3483232;28;20055;-43
2021/07/06 05:36:09;;;;;;;12.45;7.05;;;;;;;23.87;74.34;98988.13;3479191;28;20084;-43
2021/07/06 05:37:50;;;;;;;11.00;7.70;;;;;;;23.88;74.40;98991.63;3483284;28;20049;-43
2021/07/06 05:39:32;;;;;;;11.68;6.78;;;;;;;23.88;73.99;98991.63;3473110;28;20399;-43
2021/07/06 05:41:13;;;;;;;10.10;6.85;;;;;;;23.88;74.50;98983.69;3470930;28;20130;-43
2021/07/06 05:42:55;;;;;;;9.10;7.00;;;;;;;23.87;73.89;98987.25;3480809;28;20053;-43
2021/07/06 05:44:39;;;;;;;9.63;6.95;;;;;;;23.88;74.17;98992.47;3478146;28;20077;-43
2021/07/06 05:46:20;;;;;;;;;;;;;;;23.88;74.08;98983.69;3483483;28;20514;-43
2021/07/06 05:48:02;;;;;;;11.43;6.68;;;;;;;23.86;73.96;98986.41;3478913;28;19935;-43
2021/07/06 05:49:44;;;;;;;8.98;6.95;;;;;;;23.87;73.92;98984.63;3483435;28;20085;-43
2021/07/06 05:51:25;;;;;;;8.35;6.80;;;;;;;23.91;74.11;98987.03;3472983;28;20131;-43
2021/07/06 05:53:08;;;;;;;9.40;6.97;;;;;;;23.97;74.51;98985.00;3469393;28;20041;-43
2021/07/06 05:54:49;;;;;;;10.55;7.30;;;;;;;24.02;73.95;98990.91;3470086;28;20477;-43
2021/07/06 05:56:33;;;;;;;11.07;7.03;;;;;;;24.05;73.70;98994.28;3471921;28;20107;-43
2021/07/06 05:58:15;;;;;;;;;;;;;;;24.12;73.51;98996.59;3483488;28;20157;-43
2021/07/06 05:59:56;;;;;;;8.57;6.90;;;;;;;24.18;73.80;98999.81;3475092;28;19925;-43
2021/07/06 06:01:38;;;;;;;9.43;6.95;;;;;;;24.25;73.21;98998.53;3469421;28;20130;-43
2021/07/06 06:03:19;;;;;;;10.43;7.25;;;;;;;24.36;72.98;98997.94;3480102;28;20059;-43
2021/07/06 06:05:01;;;;;;;8.25;6.90;;;;;;;24.50;73.68;98999.88;3481242;28;20506;-43
2021/07/06 06:06:42;;;;;;;11.23;7.70;;;;;;;24.64;72.74;98999.97;3480409;28;20045;-43
2021/07/06 06:08:23;;;;;;;8.35;6.95;;;;;;;24.79;71.34;98997.41;3479426;28;20599;-44
2021/07/06 06:10:07;;;;;;;11.80;7.53;;;;;;;24.90;70.19;99003.00;3483246;28;20136;-44
2021/07/06 06:11:48;;;;;;;9.00;6.70;;;;;;;25.07;70.65;99004.69;3474982;28;20077;-43
2021/07/06 06:13:30;;;;;;;10.55;7.05;;;;;;;25.21;69.94;99007.44;3469114;28;20176;-43
2021/07/06 06:15:12;;;;;;;10.90;7.30;;;;;;;25.38;69.03;99006.44;3477929;28;20052;-43
2021/07/06 06:16:53;;;;;;;10.75;7.43;;;;;;;25.56;68.82;99007.22;3481251;28;20087;-43
2021/07/06 06:18:34;;;;;;;8.05;7.05;;;;;;;25.71;69.08;99009.94;3469895;28;20143;-43
2021/07/06 06:20:16;;;;;;;11.25;6.95;;;;;;;25.84;69.43;99010.91;3471567;28;20684;-43
2021/07/06 06:21:58;;;;;;;12.90;8.55;;;;;;;25.92;67.08;99010.44;3469343;28;20079;-43
2021/07/06 06:23:39;;;;;;;18.13;7.40;;;;;;;26.00;66.39;99007.31;3477367;28;20041;-43
2021/07/06 06:25:21;;;;;;;8.27;7.47;;;;;;;26.04;65.62;99011.50;3482960;28;20096;-43
2021/07/06 06:27:02;;;;;;;10.63;6.97;;;;;;;26.12;67.09;99010.06;3471973;28;20417;-43
2021/07/06 06:28:45;;;;;;;10.35;7.07;;;;;;;26.19;66.07;99009.72;3470469;28;20072;-44
2021/07/06 06:30:26;;;;;;;9.15;7.03;;;;;;;26.28;65.94;99001.19;3482113;28;20429;-43
2021/07/06 06:32:08;;;;;;;9.32;7.25;;;;;;;26.44;66.40;99009.09;3478530;28;20139;-44
2021/07/06 06:33:49;;;;;;;11.38;7.68;;;;;;;26.53;65.53;99005.84;3469012;28;20454;-44
2021/07/06 06:35:30;;;;;;;11.30;8.10;;;;;;;26.58;64.32;99003.75;3474916;28;20091;-42
2021/07/06 06:37:12;;;;;;;13.13;8.27;;;;;;;26.69;65.03;99013.72;3482804;28;20060;-42
2021/07/06 06:38:53;;;;;;;11.48;7.50;;;;;;;26.81;64.39;99020.06;3472581;28;20090;-42
2021/07/06 06:40:35;;;;;;;8.93;7.30;;;;;;;26.96;64.03;99010.25;3468884;28;20073;-42
2021/07/06 06:42:16;;;;;;;9.15;7.18;;;;;;;27.07;63.25;99021.09;3479883;28;20053;-42
2021/07/06 06:43:58;;;;;;;17.45;8.02;;;;;;;27.12;62.56;99016.31;3478578;28;20069;-43
2021/07/06 06:45:39;;;;;;;13.32;7.68;;;;;;;27.09;62.83;99016.50;3482665;28;20087;-43
2021/07/06 06:47:21;;;;;;;9.25;7.03;;;;;;;27.07;62.89;99013.09;3478248;28;20450;-43
2021/07/06 06:49:04;;;;;;;9.80;7.25;;;;;;;27.00;63.07;99023.28;3482628;28;20467;-43
2021/07/06 06:50:46;;;;;;;10.60;7.20;;;;;;;26.91;62.95;99014.06;3471215;28;20501;-43
2021/07/06 06:52:27;;;;;;;9.07;6.80;;;;;;;26.85;63.35;99008.25;3468793;28;20079;-42
2021/07/06 06:54:08;;;;;;;10.52;7.28;;;;;;;26.84;64.45;99019.88;3470744;28;20534;-43
2021/07/06 06:55:50;;;;;;;12.30;7.55;;;;;;;26.83;64.46;99007.50;3470124;28;20106;-43
2021/07/06 06:57:31;;;;;;;8.80;7.05;;;;;;;26.85;63.41;99014.44;3468695;28;20050;-43
2021/07/06 06:59:14;;;;;;;8.45;7.05;;;;;;;26.80;63.69;99013.91;3471258;28;20532;-43
2021/07/06 07:00:55;;;;;;;9.65;6.97;;;;;;;26.78;64.19;99015.78;3468867;28;20050;-43
2021/07/06 07:02:38;;;;;;;17.23;10.20;;;;;;;26.83;63.86;99015.50;3477873;28;20053;-42
2021/07/06 07:04:20;;;;;;;11.52;8.43;;;;;;;26.91;64.60;99015.88;3480584;28;20048;-43
2021/07/06 07:06:02;;;;;;;10.43;6.43;;;;;;;27.02;63.58;99016.06;3479831;28;20080;-43
2021/07/06 07:07:43;;;;;;;12.15;7.07;;;;;;;27.15;63.12;99016.09;3479177;28;20426;-43
2021/07/06 07:09:24;;;;;;;9.90;6.88;;;;;;;27.28;62.04;99010.84;3468553;28;20148;-43
2021/07/06 07:11:06;;;;;;;9.15;7.10;;;;;;;27.44;62.29;99021.34;3472207;28;20470;-42
2021/07/06 07:12:48;;;;;;;8.95;6.72;;;;;;;27.59;61.74;99014.13;3468772;28;20144;-43
2021/07/06 07:14:31;;;;;;;7.82;7.03;;;;;;;27.74;59.78;99020.28;3470974;28;20426;-44
2021/07/06 07:16:12;;;;;;;10.95;6.35;;;;;;;27.91;60.30;99014.63;3470163;28;20182;-44
2021/07/06 07:17:54;;;;;;;6.88;5.68;;;;;;;28.10;60.32;99010.69;3469467;28;20103;-43
2021/07/06 07:19:35;;;;;;;7.43;6.35;;;;;;;28.23;59.05;99015.09;3472528;28;20136;-44
2021/07/06 07:21:17;;;;;;;10.50;7.07;;;;;;;28.35;58.30;99016.03;3468607;28;20054;-43
2021/07/06 07:22:58;;;;;;;10.55;6.13;;;;;;;28.45;58.39;99016.25;3472117;28;20494;-43
2021/07/06 07:24:40;;;;;;;8.57;7.13;;;;;;;28.53;58.80;99021.03;3468847;28;20112;-43
2021/07/06 07:26:21;;;;;;;7.72;6.25;;;;;;;28.63;58.96;99016.75;3471986;28;20060;-42
2021/07/06 07:28:03;;;;;;;11.27;6.45;;;;;;;28.64;57.71;99020.28;3480475;28;20079;-44
2021/07/06 07:29:45;;;;;;;7.25;6.18;;;;;;;28.73;57.60;99020.47;3479645;28;20148;-43
2021/07/06 07:31:26;;;;;;;10.57;6.25;;;;;;;28.80;56.78;99023.56;3477972;28;20138;-45
2021/07/06 07:33:08;;;;;;;8.05;6.25;;;;;;;28.77;57.34;99027.31;3482356;28;20052;-46
2021/07/06 07:34:49;;;;;;;8.93;6.50;;;;;;;28.67;57.69;99022.72;3475657;28;20133;-43
2021/07/06 07:36:31;;;;;;;12.63;6.57;;;;;;;28.65;57.84;99022.00;3468478;28;20092;-45
2021/07/06 07:38:12;;;;;;;9.63;6.00;;;;;;;28.59;56.23;99023.28;3476264;28;20076;-43
2021/07/06 07:39:54;;;;;;;7.10;6.40;;;;;;;28.57;57.00;99011.88;3480535;28;20318;-43
2021/07/06 07:41:35;;;;;;;9.43;5.85;;;;;;;28.69;57.93;99020.81;3479446;28;20077;-43
2021/07/06 07:43:17;;;;;;;7.90;6.22;;;;;;;28.72;58.16;99026.78;3477719;28;20067;-43
2021/07/06 07:44:59;;;;;;;8.32;5.80;;;;;;;28.76;57.51;99030.94;3481974;28;20138;-43
2021/07/06 07:46:40;;;;;;;10.23;5.90;;;;;;;28.75;57.16;99021.22;3477593;28;20183;-43
2021/07/06 07:48:21;;;;;;;8.93;6.50;;;;;;;28.73;57.85;99027.66;3482287;28;20538;-43
2021/07/06 07:50:05;;;;;;;7.50;6.30;;;;;;;28.60;56.92;99022.31;3477756;28;20044;-43
2021/07/06 07:51:46;;;;;;;7.32;6.20;;;;;;;28.50;57.97;99031.97;3480314;28;20303;-43
2021/07/06 07:53:28;;;;;;;8.73;6.30;;;;;;;28.43;58.05;99026.19;3477268;28;20072;-43
2021/07/06 07:55:10;;;;;;;7.65;6.20;;;;;;;28.39;57.81;99030.03;3477721;28;20168;-43
2021/07/06 07:56:51;;;;;;;9.45;6.05;;;;;;;28.33;57.54;99023.31;3481850;28;20130;-43
2021/07/06 07:58:32;;;;;;;7.22;6.13;;;;;;;28.27;57.30;99031.75;3477298;28;20513;-43